createdAt,value
2018-07-27T00:02:26.414Z,8.70
2018-07-27T00:04:54.617Z,9.60
2018-07-27T00:07:22.845Z,9.53
2018-07-27T00:09:51.041Z,9.23
2018-07-27T00:12:19.451Z,9.30
2018-07-27T00:14:47.362Z,9.03
2018-07-27T00:17:15.581Z,9.13
2018-07-27T00:19:43.769Z,9.87
2018-07-27T00:22:12.109Z,9.63
2018-07-27T00:24:40.329Z,9.70
2018-07-27T00:27:08.557Z,10.00
2018-07-27T00:29:36.759Z,10.57
2018-07-27T00:32:04.952Z,10.63
2018-07-27T00:34:33.250Z,10.07
2018-07-27T00:37:01.523Z,9.40
2018-07-27T00:39:29.761Z,9.60
2018-07-27T00:41:57.960Z,10.10
2018-07-27T00:44:26.195Z,9.20
2018-07-27T00:46:54.529Z,10.33
2018-07-27T00:49:22.706Z,9.00
2018-07-27T00:51:51.169Z,9.67
2018-07-27T00:54:19.370Z,10.90
2018-07-27T00:56:47.599Z,10.00
2018-07-27T00:59:15.816Z,9.90
2018-07-27T01:01:44.066Z,10.27
2018-07-27T01:04:12.366Z,9.40
2018-07-27T01:06:40.769Z,10.90
2018-07-27T01:09:10.016Z,10.30
2018-07-27T01:11:38.293Z,10.67
2018-07-27T01:14:06.921Z,9.67
2018-07-27T01:16:35.325Z,9.40
2018-07-27T01:19:03.733Z,10.47
2018-07-27T01:21:31.983Z,14.60
2018-07-27T01:24:00.224Z,10.00
2018-07-27T01:26:28.546Z,9.87
2018-07-27T01:28:56.869Z,10.70
2018-07-27T01:31:25.106Z,10.93
2018-07-27T01:33:53.369Z,9.23
2018-07-27T01:36:21.697Z,11.17
2018-07-27T01:38:50.095Z,11.50
2018-07-27T01:41:18.309Z,12.30
2018-07-27T01:43:46.248Z,12.50
2018-07-27T01:46:14.469Z,10.77
2018-07-27T01:48:42.689Z,10.70
2018-07-27T01:51:10.922Z,11.10
2018-07-27T01:53:39.145Z,11.97
2018-07-27T01:56:07.382Z,10.10
2018-07-27T01:58:35.589Z,12.03
2018-07-27T02:01:03.809Z,10.27
2018-07-27T02:03:32.009Z,11.23
2018-07-27T02:06:00.263Z,10.70
2018-07-27T02:08:28.418Z,11.40
2018-07-27T02:10:56.650Z,10.70
2018-07-27T02:13:25.141Z,10.60
2018-07-27T02:15:53.329Z,16.73
2018-07-27T02:18:21.558Z,13.27
2018-07-27T02:20:49.776Z,10.67
2018-07-27T02:23:18.003Z,10.50
2018-07-27T02:25:46.397Z,11.30
2018-07-27T02:28:14.587Z,11.10
2018-07-27T02:30:42.794Z,10.57
2018-07-27T02:33:11.003Z,10.20
2018-07-27T02:35:39.205Z,9.77
2018-07-27T02:38:07.716Z,11.13
2018-07-27T02:40:35.902Z,9.97
2018-07-27T02:43:04.155Z,10.50
2018-07-27T02:45:32.418Z,9.80
2018-07-27T02:48:00.617Z,10.23
2018-07-27T02:50:28.852Z,10.03
2018-07-27T02:52:57.077Z,11.20
2018-07-27T02:55:25.286Z,11.43
2018-07-27T02:57:53.498Z,11.80
2018-07-27T03:00:21.721Z,11.00
2018-07-27T03:02:49.945Z,10.77
2018-07-27T03:05:18.146Z,11.13
2018-07-27T03:07:46.358Z,12.17
2018-07-27T03:10:14.569Z,12.00
2018-07-27T03:12:42.797Z,11.73
2018-07-27T03:15:11.025Z,11.80
2018-07-27T03:17:39.245Z,11.97
2018-07-27T03:20:07.660Z,11.10
2018-07-27T03:22:35.886Z,12.00
2018-07-27T03:25:04.564Z,11.83
2018-07-27T03:27:32.792Z,11.10
2018-07-27T03:30:00.984Z,12.33
2018-07-27T03:32:29.209Z,12.70
2018-07-27T03:34:57.422Z,11.73
2018-07-27T03:37:25.717Z,11.53
2018-07-27T03:39:53.964Z,12.90
2018-07-27T03:42:22.473Z,12.50
2018-07-27T03:44:50.743Z,11.57
2018-07-27T03:47:18.942Z,12.43
2018-07-27T03:49:47.197Z,11.90
2018-07-27T03:52:15.447Z,12.60
2018-07-27T03:54:43.843Z,13.50
2018-07-27T03:57:12.070Z,12.70
2018-07-27T03:59:40.033Z,12.23
2018-07-27T04:02:08.456Z,12.20
2018-07-27T04:04:36.667Z,11.97
2018-07-27T04:07:05.095Z,13.43
2018-07-27T04:09:33.372Z,12.70
2018-07-27T04:12:01.618Z,13.07
2018-07-27T04:14:29.862Z,12.73
2018-07-27T04:16:58.060Z,12.60
2018-07-27T04:19:26.273Z,12.60
2018-07-27T04:21:54.557Z,12.90
2018-07-27T04:24:22.812Z,12.73
2018-07-27T04:26:51.189Z,13.23
2018-07-27T04:29:19.454Z,13.07
2018-07-27T04:31:47.397Z,13.90
2018-07-27T04:34:15.636Z,15.00
2018-07-27T04:36:43.846Z,13.80
2018-07-27T04:39:12.520Z,14.17
2018-07-27T04:41:40.833Z,15.53
2018-07-27T04:44:09.152Z,14.50
2018-07-27T04:46:37.423Z,14.27
2018-07-27T04:49:06.027Z,14.23
2018-07-27T04:51:34.253Z,15.27
2018-07-27T04:54:02.435Z,14.47
2018-07-27T04:56:30.741Z,13.40
2018-07-27T04:58:58.685Z,13.63
2018-07-27T05:01:26.930Z,14.87
2018-07-27T05:03:55.278Z,14.83
2018-07-27T05:06:23.517Z,14.03
2018-07-27T05:08:57.017Z,14.30
2018-07-27T05:11:25.360Z,13.53
2018-07-27T05:13:53.562Z,13.97
2018-07-27T05:16:21.760Z,13.97
2018-07-27T05:18:49.978Z,13.97
2018-07-27T05:21:18.224Z,13.20
2018-07-27T05:23:46.421Z,12.97
2018-07-27T05:26:14.674Z,13.83
2018-07-27T05:28:42.857Z,15.73
2018-07-27T05:31:11.072Z,14.40
2018-07-27T05:33:39.105Z,15.13
2018-07-27T05:36:07.338Z,13.50
2018-07-27T05:38:35.568Z,15.07
2018-07-27T05:41:03.778Z,17.30
2018-07-27T05:43:31.985Z,14.60
2018-07-27T05:46:00.266Z,15.60
2018-07-27T05:48:28.477Z,13.90
2018-07-27T05:50:56.686Z,14.40
2018-07-27T05:53:24.925Z,13.30
2018-07-27T05:55:53.398Z,13.73
2018-07-27T05:58:21.622Z,16.33
2018-07-27T06:00:49.841Z,13.67
2018-07-27T06:03:18.057Z,12.10
2018-07-27T06:05:46.274Z,14.80
2018-07-27T06:08:15.462Z,12.20
2018-07-27T06:10:43.718Z,11.37
2018-07-27T06:13:11.962Z,11.90
2018-07-27T06:15:40.169Z,17.97
2018-07-27T06:18:09.055Z,13.23
2018-07-27T06:20:37.151Z,13.30
2018-07-27T06:23:05.377Z,11.57
2018-07-27T06:25:33.625Z,11.47
2018-07-27T06:28:01.829Z,11.37
2018-07-27T06:30:30.070Z,11.93
2018-07-27T06:32:58.276Z,14.63
2018-07-27T06:35:26.485Z,11.73
2018-07-27T06:37:54.689Z,11.33
2018-07-27T06:40:23.026Z,9.90
2018-07-27T06:42:51.273Z,12.00
2018-07-27T06:45:19.569Z,10.27
2018-07-27T06:47:47.976Z,10.53
2018-07-27T06:50:16.182Z,9.20
2018-07-27T06:52:44.430Z,8.80
2018-07-27T06:55:12.685Z,8.90
2018-07-27T06:57:40.897Z,9.63
2018-07-27T07:00:09.137Z,11.10
2018-07-27T07:02:37.469Z,9.27
2018-07-27T07:05:06.318Z,8.50
2018-07-27T07:07:34.529Z,18.80
2018-07-27T07:10:02.756Z,9.20
2018-07-27T07:12:30.985Z,10.20
2018-07-27T07:14:59.189Z,8.63
2018-07-27T07:17:27.409Z,8.90
2018-07-27T07:19:55.606Z,9.10
2018-07-27T07:22:23.823Z,8.90
2018-07-27T07:24:52.017Z,8.20
2018-07-27T07:27:20.223Z,8.00
2018-07-27T07:29:48.426Z,8.47
2018-07-27T07:32:16.834Z,8.50
2018-07-27T07:34:45.037Z,8.47
2018-07-27T07:37:13.245Z,8.47
2018-07-27T07:39:41.445Z,7.37
2018-07-27T07:42:09.661Z,9.03
2018-07-27T07:44:37.886Z,7.37
2018-07-27T07:47:06.146Z,8.53
2018-07-27T07:49:34.353Z,7.30
2018-07-27T07:52:02.597Z,6.83
2018-07-27T07:54:30.803Z,8.10
2018-07-27T07:56:59.003Z,7.20
2018-07-27T07:59:27.197Z,7.77
2018-07-27T08:01:55.423Z,6.90
2018-07-27T08:04:23.666Z,6.90
2018-07-27T08:06:51.822Z,6.43
2018-07-27T08:09:20.318Z,6.77
2018-07-27T08:11:49.286Z,7.30
2018-07-27T08:14:17.673Z,7.60
2018-07-27T08:16:45.886Z,6.77
2018-07-27T08:19:14.285Z,6.80
2018-07-27T08:21:42.521Z,7.20
2018-07-27T08:24:10.709Z,7.40
2018-07-27T08:27:01.085Z,7.00
2018-07-27T08:29:32.821Z,7.80
2018-07-27T08:32:01.367Z,6.57
2018-07-27T08:34:29.807Z,6.20
2018-07-27T08:36:58.027Z,7.00
2018-07-27T08:39:27.416Z,7.97
2018-07-27T08:41:55.673Z,7.33
2018-07-27T08:44:27.062Z,6.67
2018-07-27T08:46:55.045Z,6.80
2018-07-27T08:49:23.230Z,6.10
2018-07-27T08:51:51.457Z,6.10
2018-07-27T08:54:19.701Z,5.70
2018-07-27T08:56:47.956Z,7.60
2018-07-27T08:59:16.174Z,7.37
2018-07-27T09:01:44.525Z,6.30
2018-07-27T09:04:12.843Z,5.80
2018-07-27T09:06:41.131Z,5.80
2018-07-27T09:09:11.865Z,6.80
2018-07-27T09:11:40.212Z,5.93
2018-07-27T09:14:08.398Z,6.60
2018-07-27T09:16:36.630Z,6.07
2018-07-27T09:19:05.004Z,6.00
2018-07-27T09:21:33.205Z,7.50
2018-07-27T09:24:01.517Z,7.70
2018-07-27T09:26:29.734Z,6.73
2018-07-27T09:28:57.955Z,7.13
2018-07-27T09:31:26.429Z,7.00
2018-07-27T09:33:54.727Z,6.60
2018-07-27T09:36:22.942Z,7.37
2018-07-27T09:38:51.156Z,7.20
2018-07-27T09:41:19.366Z,7.20
2018-07-27T09:43:47.581Z,7.63
2018-07-27T09:46:15.765Z,8.40
2018-07-27T09:48:48.242Z,8.17
2018-07-27T09:51:16.457Z,6.47
2018-07-27T09:53:44.677Z,6.87
2018-07-27T09:56:13.314Z,9.53
2018-07-27T09:58:41.509Z,6.80
2018-07-27T10:01:13.977Z,6.50
2018-07-27T10:03:42.175Z,6.20
2018-07-27T10:06:10.448Z,7.43
2018-07-27T10:08:39.186Z,7.37
2018-07-27T10:11:07.372Z,6.60
2018-07-27T10:13:35.569Z,7.00
2018-07-27T10:16:03.821Z,7.03
2018-07-27T10:18:32.032Z,6.50
2018-07-27T10:21:00.231Z,7.77
2018-07-27T10:23:28.413Z,7.60
2018-07-27T10:25:56.610Z,7.37
2018-07-27T10:28:24.817Z,7.00
2018-07-27T10:30:53.026Z,7.40
2018-07-27T10:33:21.229Z,7.30
2018-07-27T10:35:49.433Z,5.90
2018-07-27T10:38:18.088Z,6.80
2018-07-27T10:40:46.413Z,6.90
2018-07-27T10:43:14.625Z,6.03
2018-07-27T10:45:42.866Z,6.43
2018-07-27T10:48:11.245Z,5.67
2018-07-27T10:50:39.438Z,5.50
2018-07-27T10:53:07.652Z,6.07
2018-07-27T10:55:35.873Z,5.80
2018-07-27T10:58:04.173Z,5.03
2018-07-27T11:00:32.524Z,6.67
2018-07-27T11:03:00.985Z,6.20
2018-07-27T11:05:29.309Z,5.70
2018-07-27T11:07:57.560Z,5.83
2018-07-27T11:10:25.799Z,6.07
2018-07-27T11:12:54.045Z,6.37
2018-07-27T11:15:22.393Z,6.57
2018-07-27T11:17:50.653Z,6.90
2018-07-27T11:20:18.933Z,4.63
2018-07-27T11:22:47.505Z,5.83
2018-07-27T11:25:15.909Z,4.83
2018-07-27T11:27:44.166Z,5.30
2018-07-27T11:30:12.443Z,4.90
2018-07-27T11:32:40.733Z,4.87
2018-07-27T11:35:08.977Z,4.50
2018-07-27T11:37:37.310Z,4.43
2018-07-27T11:40:06.372Z,4.27
2018-07-27T11:42:34.651Z,3.87
2018-07-27T11:45:03.034Z,4.73
2018-07-27T11:47:31.466Z,4.60
2018-07-27T11:49:59.711Z,5.30
2018-07-27T11:52:28.065Z,4.20
2018-07-27T11:54:56.549Z,4.30
2018-07-27T11:57:24.761Z,4.53
2018-07-27T11:59:53.032Z,3.80
2018-07-27T12:02:21.403Z,4.10
2018-07-27T12:04:49.977Z,4.73
2018-07-27T12:07:18.334Z,3.90
2018-07-27T12:09:46.608Z,4.23
2018-07-27T12:12:14.902Z,3.97
2018-07-27T12:14:43.304Z,3.93
2018-07-27T12:17:11.540Z,3.70
2018-07-27T12:19:39.762Z,3.93
2018-07-27T12:22:08.021Z,3.60
2018-07-27T12:24:37.518Z,4.27
2018-07-27T12:27:05.900Z,4.00
2018-07-27T12:29:34.190Z,4.03
2018-07-27T12:32:03.595Z,3.03
2018-07-27T12:34:31.817Z,3.37
2018-07-27T12:37:00.111Z,3.30
2018-07-27T12:39:28.387Z,3.30
2018-07-27T12:41:56.669Z,3.13
2018-07-27T12:44:24.942Z,3.27
2018-07-27T12:46:53.171Z,3.40
2018-07-27T12:49:21.849Z,3.30
2018-07-27T12:51:50.120Z,4.20
2018-07-27T12:54:18.177Z,4.03
2018-07-27T12:56:46.595Z,3.50
2018-07-27T12:59:14.563Z,4.23
2018-07-27T13:01:42.798Z,3.50
2018-07-27T13:04:11.129Z,3.77
2018-07-27T13:06:39.330Z,3.70
2018-07-27T13:09:08.693Z,4.10
2018-07-27T13:11:37.073Z,3.07
2018-07-27T13:14:05.590Z,3.03
2018-07-27T13:16:33.874Z,3.57
2018-07-27T13:19:02.135Z,3.43
2018-07-27T13:21:30.397Z,3.10
2018-07-27T13:24:01.795Z,3.73
2018-07-27T13:26:30.485Z,3.20
2018-07-27T13:28:58.823Z,3.53
2018-07-27T13:31:48.791Z,3.50
2018-07-27T13:37:17.985Z,3.37
2018-07-27T13:39:47.022Z,4.07
2018-07-27T13:42:16.509Z,3.43
2018-07-27T13:44:44.980Z,3.00
2018-07-27T13:47:13.490Z,3.40
2018-07-27T13:49:41.787Z,3.20
2018-07-27T13:52:10.066Z,3.73
2018-07-27T13:54:38.418Z,3.70
2018-07-27T13:57:06.654Z,3.23
2018-07-27T13:59:34.610Z,2.80
2018-07-27T14:02:03.042Z,3.30
2018-07-27T14:04:31.317Z,3.10
2018-07-27T14:07:00.898Z,3.00
2018-07-27T14:09:29.333Z,3.13
2018-07-27T14:11:58.153Z,3.00
2018-07-27T14:14:26.176Z,2.87
2018-07-27T14:16:54.450Z,3.07
2018-07-27T14:19:22.981Z,4.37
2018-07-27T14:21:51.019Z,3.10
2018-07-27T14:24:19.555Z,3.23
2018-07-27T14:26:47.876Z,2.93
2018-07-27T14:29:16.145Z,2.80
2018-07-27T14:31:44.494Z,2.90
2018-07-27T14:34:12.762Z,2.90
2018-07-27T14:36:41.026Z,3.50
2018-07-27T14:39:12.132Z,4.23
2018-07-27T14:41:40.672Z,3.00
2018-07-27T14:44:08.986Z,3.30
2018-07-27T14:46:37.725Z,3.23
2018-07-27T14:49:10.393Z,2.87
2018-07-27T14:51:38.939Z,3.23
2018-07-27T14:54:08.117Z,3.93
2018-07-27T14:56:36.399Z,3.53
2018-07-27T14:59:04.679Z,3.30
2018-07-27T15:01:32.968Z,5.00
2018-07-27T15:04:01.312Z,2.63
2018-07-27T15:06:29.552Z,3.20
2018-07-27T15:08:57.733Z,3.30
2018-07-27T15:11:25.692Z,3.27
2018-07-27T15:13:53.897Z,3.40
2018-07-27T15:16:22.314Z,3.30
2018-07-27T15:18:50.454Z,3.20
2018-07-27T15:21:18.949Z,2.90
2018-07-27T15:23:47.314Z,2.90
2018-07-27T15:26:15.525Z,3.40
2018-07-27T15:28:43.996Z,3.10
2018-07-27T15:31:12.190Z,2.73
2018-07-27T15:33:40.401Z,2.80
2018-07-27T15:36:08.652Z,3.27
2018-07-27T15:38:36.925Z,2.70
2018-07-27T15:41:04.874Z,2.87
2018-07-27T15:43:33.165Z,2.80
2018-07-27T15:46:01.414Z,3.10
2018-07-27T15:48:29.761Z,3.07
2018-07-27T15:50:57.924Z,3.10
2018-07-27T15:53:26.145Z,4.00
2018-07-27T15:55:54.393Z,2.83
2018-07-27T15:58:22.627Z,3.00
2018-07-27T16:00:50.885Z,3.60
2018-07-27T16:03:19.125Z,3.70
2018-07-27T16:05:47.653Z,2.60
2018-07-27T16:08:16.285Z,2.73
2018-07-27T16:10:44.557Z,3.10
2018-07-27T16:13:12.810Z,3.10
2018-07-27T16:15:41.058Z,2.90
2018-07-27T16:18:09.253Z,3.10
2018-07-27T16:20:37.529Z,3.10
2018-07-27T16:23:05.629Z,3.90
2018-07-27T16:25:33.834Z,3.90
2018-07-27T16:28:02.085Z,3.77
2018-07-27T16:30:30.305Z,3.20
2018-07-27T16:32:58.725Z,2.97
2018-07-27T16:35:26.922Z,3.33
2018-07-27T16:37:55.186Z,3.67
2018-07-27T16:40:23.422Z,3.73
2018-07-27T16:42:51.782Z,2.97
2018-07-27T16:45:20.011Z,2.90
2018-07-27T16:47:48.233Z,2.70
2018-07-27T16:50:16.601Z,3.80
2018-07-27T16:52:45.013Z,3.37
2018-07-27T16:55:13.270Z,3.60
2018-07-27T16:57:41.706Z,3.87
2018-07-27T17:00:09.918Z,4.00
2018-07-27T17:02:38.149Z,4.27
2018-07-27T17:05:06.474Z,4.90
2018-07-27T17:07:34.705Z,4.23
2018-07-27T17:10:03.090Z,4.70
2018-07-27T17:12:31.453Z,3.90
2018-07-27T17:14:59.664Z,5.20
2018-07-27T17:17:27.990Z,4.03
2018-07-27T17:19:56.498Z,4.70
2018-07-27T17:22:24.828Z,4.40
2018-07-27T17:24:52.789Z,4.23
2018-07-27T17:27:21.025Z,4.10
2018-07-27T17:29:49.218Z,4.60
2018-07-27T17:32:17.466Z,4.23
2018-07-27T17:34:45.951Z,4.63
2018-07-27T17:37:14.178Z,4.30
2018-07-27T17:39:42.120Z,4.63
2018-07-27T17:42:10.380Z,4.87
2018-07-27T17:44:38.606Z,5.60
2018-07-27T17:47:07.181Z,5.20
2018-07-27T17:49:35.413Z,5.00
2018-07-27T17:52:03.966Z,4.97
2018-07-27T17:54:32.207Z,5.40
2018-07-27T17:57:00.461Z,4.40
2018-07-27T17:59:28.681Z,4.90
2018-07-27T18:01:56.904Z,5.10
2018-07-27T18:04:25.105Z,5.80
2018-07-27T18:06:53.338Z,5.07
2018-07-27T18:09:21.529Z,5.80
2018-07-27T18:11:49.798Z,5.67
2018-07-27T18:14:18.241Z,5.97
2018-07-27T18:16:46.757Z,7.30
2018-07-27T18:19:14.947Z,7.53
2018-07-27T18:21:43.172Z,6.97
2018-07-27T18:24:11.435Z,7.07
2018-07-27T18:26:39.672Z,7.37
2018-07-27T18:29:08.033Z,9.00
2018-07-27T18:31:36.274Z,8.43
2018-07-27T18:34:04.545Z,7.03
2018-07-27T18:36:32.761Z,7.57
2018-07-27T18:39:01.263Z,7.93
2018-07-27T18:41:29.499Z,7.67
2018-07-27T18:43:57.708Z,6.87
2018-07-27T18:46:25.923Z,7.13
2018-07-27T18:48:54.145Z,7.43
2018-07-27T18:51:22.349Z,6.70
2018-07-27T18:53:50.593Z,7.63
2018-07-27T18:56:18.909Z,7.00
2018-07-27T18:58:47.053Z,7.00
2018-07-27T19:01:18.825Z,7.60
2018-07-27T19:03:47.063Z,7.30
2018-07-27T19:06:15.330Z,8.63
2018-07-27T19:08:43.567Z,6.90
2018-07-27T19:11:12.701Z,7.23
2018-07-27T19:13:40.921Z,7.40
2018-07-27T19:16:10.028Z,7.07
2018-07-27T19:18:38.533Z,7.63
2018-07-27T19:21:06.759Z,8.00
2018-07-27T19:23:35.155Z,8.20
2018-07-27T19:26:03.363Z,9.10
2018-07-27T19:28:31.820Z,9.13
2018-07-27T19:31:00.040Z,9.07
2018-07-27T19:33:28.298Z,9.53
2018-07-27T19:35:56.521Z,8.50
2018-07-27T19:38:24.777Z,7.37
2018-07-27T19:40:53.002Z,8.10
2018-07-27T19:43:21.230Z,8.07
2018-07-27T19:45:49.665Z,8.97
2018-07-27T19:48:17.885Z,7.27
2018-07-27T19:50:46.166Z,7.03
2018-07-27T19:53:14.395Z,7.73
2018-07-27T19:55:42.801Z,8.13
2018-07-27T19:58:11.030Z,8.20
2018-07-27T20:00:39.253Z,7.93
2018-07-27T20:03:07.486Z,8.10
2018-07-27T20:05:35.730Z,8.33
2018-07-27T20:08:04.213Z,8.93
2018-07-27T20:10:32.486Z,9.27
2018-07-27T20:13:00.717Z,8.93
2018-07-27T20:15:28.962Z,9.33
2018-07-27T20:17:57.278Z,8.73
2018-07-27T20:20:25.506Z,9.10
2018-07-27T20:22:54.040Z,9.03
2018-07-27T20:25:22.233Z,9.47
2018-07-27T20:27:50.646Z,9.43
2018-07-27T20:30:18.882Z,8.43
2018-07-27T20:32:47.105Z,9.23
2018-07-27T20:35:15.493Z,9.03
2018-07-27T20:37:43.702Z,9.10
2018-07-27T20:40:11.975Z,9.00
2018-07-27T20:42:40.333Z,9.43
2018-07-27T20:45:08.559Z,9.40
2018-07-27T20:47:37.217Z,8.67
2018-07-27T20:50:06.110Z,9.90
2018-07-27T20:52:34.314Z,10.27
2018-07-27T20:59:37.970Z,10.00
2018-07-27T21:02:06.498Z,11.17
2018-07-27T21:04:34.782Z,11.00
2018-07-27T21:07:03.014Z,10.77
2018-07-27T21:09:36.695Z,10.90
2018-07-27T21:12:04.921Z,10.70
2018-07-27T21:14:33.126Z,11.40
2018-07-27T21:17:01.346Z,12.00
2018-07-27T21:19:29.550Z,12.27
2018-07-27T21:21:57.858Z,11.70
2018-07-27T21:24:26.175Z,12.33
2018-07-27T21:26:54.397Z,13.27
2018-07-27T21:29:22.649Z,12.80
2018-07-27T21:31:50.890Z,12.40
2018-07-27T21:34:19.913Z,11.97
2018-07-27T21:36:48.121Z,12.10
2018-07-27T21:39:16.357Z,11.70
2018-07-27T21:41:44.602Z,10.90
2018-07-27T21:44:12.562Z,12.07
2018-07-27T21:46:40.819Z,12.83
2018-07-27T21:49:09.077Z,12.90
2018-07-27T21:51:37.356Z,12.53
2018-07-27T21:54:05.567Z,11.80
2018-07-27T21:56:33.550Z,11.07
2018-07-27T21:59:01.823Z,12.63
2018-07-27T22:01:30.058Z,13.23
2018-07-27T22:03:58.274Z,11.87
2018-07-27T22:06:26.517Z,12.07
2018-07-27T22:08:54.741Z,11.93
2018-07-27T22:11:23.011Z,11.77
2018-07-27T22:13:51.392Z,10.93
2018-07-27T22:16:19.346Z,13.87
2018-07-27T22:18:47.597Z,12.33
2018-07-27T22:21:15.983Z,12.90
2018-07-27T22:23:44.213Z,12.07
2018-07-27T22:26:12.397Z,11.10
2018-07-27T22:28:40.633Z,12.83
2018-07-27T22:31:08.910Z,13.37
2018-07-27T22:33:37.138Z,11.77
2018-07-27T22:36:05.396Z,12.50
2018-07-27T22:38:33.645Z,13.53
2018-07-27T22:41:01.908Z,11.87
2018-07-27T22:43:30.420Z,12.50
2018-07-27T22:45:58.682Z,12.80
2018-07-27T22:48:26.910Z,12.57
2018-07-27T22:50:55.219Z,12.47
2018-07-27T22:53:23.426Z,11.53
2018-07-27T22:55:51.654Z,11.40
2018-07-27T22:58:19.657Z,12.13
2018-07-27T23:00:47.873Z,11.90
2018-07-27T23:03:16.142Z,12.67
2018-07-27T23:05:44.651Z,11.27
2018-07-27T23:08:12.933Z,11.00
2018-07-27T23:10:41.175Z,12.10
2018-07-27T23:13:09.356Z,12.23
2018-07-27T23:15:37.577Z,11.90
2018-07-27T23:18:05.879Z,11.87
2018-07-27T23:20:34.255Z,11.03
2018-07-27T23:23:02.454Z,12.00
2018-07-27T23:25:30.705Z,11.03
2018-07-27T23:27:59.203Z,11.90
2018-07-27T23:30:27.391Z,11.93
2018-07-27T23:32:55.636Z,11.57
2018-07-27T23:35:23.857Z,11.30
2018-07-27T23:37:52.089Z,11.80
2018-07-27T23:40:20.317Z,11.60
2018-07-27T23:42:48.290Z,12.50
2018-07-27T23:45:16.523Z,11.80
2018-07-27T23:47:44.758Z,13.33
2018-07-27T23:50:12.990Z,11.77
2018-07-27T23:52:41.213Z,11.97
2018-07-27T23:55:09.469Z,11.57
2018-07-27T23:57:37.701Z,11.93
